CXA924 CYKM-CYGD
Flight info
| Callsign | CXA924 |
|---|---|
| Flight time | 0h 18m |
| Altitude | 4500 |
| Route | 31 SW DEP DCT IKBOB R14 |
| Aircraft | K100/L-L/1200 |
Departure
| Time | 2026-04-14 12:04 |
|---|---|
| Airport | Kincardine Municipal Airport (CYKM) |
Arrival
| Time | 2026-04-14 12:22 |
|---|---|
| Airport | Goderich Airport (CYGD) |
| Time | Latitude | Longitude | Altitude | Speed | Heading |
|---|---|---|---|---|---|
| 2026-04-14 11:54 | 44.19894 | -81.59813 | 776 ft | 0 kts | 300° |
| 2026-04-14 12:01 | 44.19891 | -81.59806 | 776 ft | 0 kts | 290° |
| 2026-04-14 12:01 | 44.19890 | -81.59887 | 776 ft | 16 kts | 262° |
| 2026-04-14 12:01 | 44.19844 | -81.59979 | 775 ft | 12 kts | 293° |
| 2026-04-14 12:01 | 44.19869 | -81.60026 | 775 ft | 0 kts | 295° |
| 2026-04-14 12:03 | 44.19921 | -81.60174 | 773 ft | 46 kts | 298° |
| 2026-04-14 12:03 | 44.20160 | -81.60773 | 821 ft | 87 kts | 282° |
| 2026-04-14 12:03 | 44.20423 | -81.61606 | 1042 ft | 95 kts | 283° |
| 2026-04-14 12:04 | 44.20768 | -81.62400 | 1331 ft | 106 kts | 300° |
| 2026-04-14 12:04 | 44.21229 | -81.63291 | 1482 ft | 121 kts | 294° |
| 2026-04-14 12:04 | 44.21731 | -81.64300 | 1620 ft | 127 kts | 287° |
| 2026-04-14 12:04 | 44.21694 | -81.65422 | 1758 ft | 120 kts | 235° |
| 2026-04-14 12:05 | 44.20918 | -81.65898 | 1933 ft | 132 kts | 194° |
| 2026-04-14 12:05 | 44.19992 | -81.65931 | 2129 ft | 133 kts | 193° |
| 2026-04-14 12:05 | 44.19066 | -81.65947 | 2331 ft | 134 kts | 193° |
| 2026-04-14 12:05 | 44.18129 | -81.65942 | 2527 ft | 135 kts | 193° |
| 2026-04-14 12:06 | 44.17185 | -81.65927 | 2722 ft | 135 kts | 193° |
| 2026-04-14 12:06 | 44.16242 | -81.65905 | 2919 ft | 136 kts | 193° |
| 2026-04-14 12:06 | 44.15293 | -81.65873 | 3122 ft | 137 kts | 193° |
| 2026-04-14 12:06 | 44.14348 | -81.65847 | 3315 ft | 138 kts | 193° |
| 2026-04-14 12:07 | 44.13493 | -81.66132 | 3523 ft | 118 kts | 229° |
| 2026-04-14 12:07 | 44.12857 | -81.66863 | 3728 ft | 120 kts | 227° |
| 2026-04-14 12:07 | 44.12191 | -81.67560 | 3923 ft | 121 kts | 226° |
| 2026-04-14 12:07 | 44.11486 | -81.68240 | 4123 ft | 124 kts | 224° |
| 2026-04-14 12:08 | 44.10766 | -81.68902 | 4322 ft | 125 kts | 223° |
| 2026-04-14 12:08 | 44.10038 | -81.69557 | 4511 ft | 126 kts | 223° |
| 2026-04-14 12:08 | 44.09267 | -81.70257 | 4512 ft | 138 kts | 223° |
| 2026-04-14 12:08 | 44.08446 | -81.70987 | 4515 ft | 143 kts | 221° |
| 2026-04-14 12:09 | 44.07598 | -81.71736 | 4520 ft | 143 kts | 221° |
| 2026-04-14 12:09 | 44.06773 | -81.72459 | 4517 ft | 139 kts | 221° |
| 2026-04-14 12:09 | 44.05965 | -81.73172 | 4517 ft | 136 kts | 222° |
| 2026-04-14 12:09 | 44.05178 | -81.73870 | 4495 ft | 137 kts | 222° |
| 2026-04-14 12:10 | 44.04368 | -81.74593 | 4459 ft | 138 kts | 221° |
| 2026-04-14 12:10 | 44.03564 | -81.75302 | 4454 ft | 136 kts | 221° |
| 2026-04-14 12:10 | 44.02770 | -81.76002 | 4452 ft | 135 kts | 222° |
| 2026-04-14 12:10 | 44.01982 | -81.76701 | 4456 ft | 134 kts | 222° |
| 2026-04-14 12:11 | 44.01196 | -81.77396 | 4458 ft | 133 kts | 221° |
| 2026-04-14 12:11 | 44.00417 | -81.78084 | 4451 ft | 133 kts | 221° |
| 2026-04-14 12:11 | 43.99631 | -81.78783 | 4446 ft | 134 kts | 222° |
| 2026-04-14 12:11 | 43.98842 | -81.79482 | 4426 ft | 136 kts | 222° |
| 2026-04-14 12:12 | 43.98047 | -81.80189 | 4241 ft | 131 kts | 221° |
| 2026-04-14 12:12 | 43.97301 | -81.80842 | 4029 ft | 123 kts | 222° |
| 2026-04-14 12:12 | 43.96592 | -81.81464 | 3827 ft | 118 kts | 223° |
| 2026-04-14 12:12 | 43.95915 | -81.82062 | 3629 ft | 116 kts | 223° |
| 2026-04-14 12:13 | 43.95231 | -81.82666 | 3430 ft | 114 kts | 223° |
| 2026-04-14 12:13 | 43.94567 | -81.83252 | 3239 ft | 113 kts | 223° |
| 2026-04-14 12:13 | 43.93950 | -81.83862 | 3043 ft | 108 kts | 229° |
| 2026-04-14 12:13 | 43.93361 | -81.84503 | 2839 ft | 107 kts | 226° |
| 2026-04-14 12:14 | 43.92773 | -81.85134 | 2641 ft | 107 kts | 227° |
| 2026-04-14 12:14 | 43.92276 | -81.85668 | 2476 ft | 107 kts | 226° |
| 2026-04-14 12:14 | 43.91692 | -81.86296 | 2278 ft | 106 kts | 226° |
| 2026-04-14 12:14 | 43.91100 | -81.86931 | 2074 ft | 109 kts | 224° |
| 2026-04-14 12:15 | 43.90522 | -81.87542 | 2055 ft | 103 kts | 223° |
| 2026-04-14 12:15 | 43.89956 | -81.88149 | 2056 ft | 103 kts | 224° |
| 2026-04-14 12:15 | 43.89357 | -81.88714 | 2048 ft | 105 kts | 214° |
| 2026-04-14 12:15 | 43.88657 | -81.89027 | 2048 ft | 108 kts | 201° |
| 2026-04-14 12:16 | 43.87891 | -81.89060 | 2046 ft | 114 kts | 186° |
| 2026-04-14 12:16 | 43.87103 | -81.88759 | 2046 ft | 122 kts | 170° |
| 2026-04-14 12:16 | 43.86368 | -81.88072 | 2044 ft | 133 kts | 150° |
| 2026-04-14 12:16 | 43.85770 | -81.87044 | 2043 ft | 138 kts | 140° |
| 2026-04-14 12:17 | 43.85189 | -81.86017 | 2036 ft | 136 kts | 142° |
| 2026-04-14 12:17 | 43.84610 | -81.84987 | 2034 ft | 131 kts | 142° |
| 2026-04-14 12:17 | 43.84071 | -81.84024 | 2025 ft | 124 kts | 142° |
| 2026-04-14 12:17 | 43.83558 | -81.83107 | 2040 ft | 119 kts | 143° |
| 2026-04-14 12:18 | 43.83059 | -81.82217 | 2044 ft | 114 kts | 144° |
| 2026-04-14 12:18 | 43.82587 | -81.81372 | 2038 ft | 108 kts | 145° |
| 2026-04-14 12:18 | 43.82144 | -81.80579 | 2047 ft | 101 kts | 146° |
| 2026-04-14 12:18 | 43.81704 | -81.79806 | 2037 ft | 103 kts | 147° |
| 2026-04-14 12:19 | 43.81247 | -81.79013 | 1969 ft | 108 kts | 146° |
| 2026-04-14 12:19 | 43.80813 | -81.78232 | 1843 ft | 94 kts | 145° |
| 2026-04-14 12:19 | 43.80431 | -81.77540 | 1727 ft | 88 kts | 146° |
| 2026-04-14 12:19 | 43.80068 | -81.76891 | 1614 ft | 82 kts | 147° |
| 2026-04-14 12:20 | 43.79734 | -81.76296 | 1509 ft | 77 kts | 145° |
| 2026-04-14 12:20 | 43.79406 | -81.75717 | 1400 ft | 75 kts | 143° |
| 2026-04-14 12:20 | 43.79107 | -81.75177 | 1302 ft | 67 kts | 140° |
| 2026-04-14 12:20 | 43.78922 | -81.74845 | 1247 ft | 66 kts | 142° |
| 2026-04-14 12:21 | 43.78629 | -81.74337 | 1156 ft | 69 kts | 142° |
| 2026-04-14 12:21 | 43.78332 | -81.73813 | 1068 ft | 69 kts | 141° |
| 2026-04-14 12:21 | 43.78038 | -81.73291 | 978 ft | 68 kts | 139° |
| 2026-04-14 12:21 | 43.77737 | -81.72752 | 889 ft | 73 kts | 143° |
| 2026-04-14 12:22 | 43.77422 | -81.72205 | 790 ft | 72 kts | 141° |
| 2026-04-14 12:22 | 43.77142 | -81.71668 | 724 ft | 65 kts | 136° |
| 2026-04-14 12:22 | 43.76866 | -81.71276 | 700 ft | 45 kts | 142° |
| 2026-04-14 12:22 | 43.76743 | -81.71024 | 706 ft | 9 kts | 135° |
| 2026-04-14 12:23 | 43.76735 | -81.71019 | 706 ft | 0 kts | 173° |
| 2026-04-14 12:23 | 43.76714 | -81.71024 | 701 ft | 9 kts | 199° |
| 2026-04-14 12:23 | 43.76651 | -81.71084 | 704 ft | 11 kts | 229° |
| 2026-04-14 12:23 | 43.76577 | -81.71143 | 710 ft | 13 kts | 186° |
| 2026-04-14 12:24 | 43.76484 | -81.71151 | 714 ft | 14 kts | 184° |
| 2026-04-14 12:24 | 43.76383 | -81.71163 | 711 ft | 16 kts | 186° |
| 2026-04-14 12:24 | 43.76331 | -81.71162 | 712 ft | 6 kts | 178° |
| 2026-04-14 12:24 | 43.76303 | -81.71134 | 712 ft | 5 kts | 146° |
| 2026-04-14 12:25 | 43.76288 | -81.71134 | 713 ft | 0 kts | 205° |